Terminal Aerodrome Forecast
Issued by NWS

Home | Current Version | Previous Version | Text Only | Print | Product List | Glossary On
Versions: 1 2 3 4 5 6 7 8 9 10 11 12 13 14 15 16
000
FTUS42 TJSJ 292000 AAA
TAFJPS
TAF AMD
TJPS 292014Z 2920/3018 15010KT P6SM VCTS FEW030CB BKN060
     FM292330 09007KT P6SM FEW030 SCT060
     FM301500 13012KT P6SM FEW030 SCT060
      AMD NOT SKED TIL 300300=

USA.gov is the U.S. government's official web portal to all federal, state and local government web resources and services.